Lexington, NE (68850)

2:20 PM CDT on September 01, 2015 (GMT -0500)
MesoWest | | Change Station
CLOSE
Current Station
Personal Weather Station
Location: Lexington, NE
Elevation: 2411 ft
Nearby Weather Stations

Elev 2411 ft 40.79 °N, 99.79 °W | Updated 11 days ago

Clear
Clear
88 °F
Feels Like 89 °F
N
10
Wind Variable Wind from SSW
Gusts mph

Today
High -- | Low -- °F
--% Chance of Precip.
Yesterday
High -- | Low -- °F
Precip. -- in
7:05 AM 8:11 PM
Waning Gibbous, 87% visible
Pressure 29.92 in
Visibility 10.0 miles
Clouds Clear
Heat Index 89 °F
Dew Point 64 °F
Humidity 46%
Rainfall in
Snow Depth Not available.
UV 9 out of 12
Pollen 10.10 out of 12
Air Quality Not available.
Flu Activity Not available.
METAR KLXN 011915Z AUTO 21005KT 10SM CLR 31/16 A2992 RMK AO2 T03140164
Pressure 29.92 in
Visibility 10.0 miles
Clouds Clear
Heat Index 89 °F
Dew Point 64 °F
Humidity 46%
Rainfall in
Snow Depth Not available.
UV 9 out of 12
Pollen 10.10 out of 12
Air Quality Not available.
Flu Activity Not available.
METAR KLXN 011915Z AUTO 21005KT 10SM CLR 31/16 A2992 RMK AO2 T03140164

10-Day Weather Forecast

×

Almanac

Astronomy

Sep. 01, 2015 Rise Set
Actual Time
Civil Twilight
Nautical Twilight
Astronomical Twilight
Moon
Length of Visible Light
Length of Day
Tomorrow will be .
, % of the Moon is Illuminated

Today's Extremes

State Highs State Lows

Community

WunderPhotos

Upload Photos

1,851,596 photos uploaded!

WunderBlogs® & News

Nearby

Air Quality

  Air Quality AQ Index Pollutant
Not available.

Snow Depth

Station Depth Elevation

Earthquake Activity

City Distance Mag. Time & Date
Minimum magnitude displayed is 2.5.

Coastal Water Temperatures

Place Temperature

Stations

Nearby Weather Stations

Station Location Temp. Windchill Dew Point Humidity Wind Precip. Elev Updated Type